createdAt,value
2018-05-23T00:00:58.142Z,8.90
2018-05-23T00:03:25.615Z,8.13
2018-05-23T00:05:53.221Z,8.40
2018-05-23T00:08:20.701Z,9.03
2018-05-23T00:10:48.205Z,8.17
2018-05-23T00:13:15.692Z,8.77
2018-05-23T00:15:43.221Z,8.43
2018-05-23T00:18:10.784Z,8.90
2018-05-23T00:20:38.259Z,9.07
2018-05-23T00:23:05.729Z,8.83
2018-05-23T00:25:33.195Z,9.03
2018-05-23T00:28:00.661Z,8.80
2018-05-23T00:30:28.180Z,9.27
2018-05-23T00:32:55.773Z,8.63
2018-05-23T00:35:23.205Z,9.10
2018-05-23T00:37:51.437Z,9.27
2018-05-23T00:40:18.925Z,9.67
2018-05-23T00:42:46.406Z,9.47
2018-05-23T01:02:29.930Z,9.87
2018-05-23T01:04:57.406Z,10.10
2018-05-23T01:07:24.876Z,10.17
2018-05-23T01:09:52.353Z,11.43
2018-05-23T01:12:19.843Z,10.27
2018-05-23T01:14:47.309Z,10.77
2018-05-23T01:17:14.776Z,11.03
2018-05-23T01:19:42.252Z,10.23
2018-05-23T01:22:09.708Z,11.23
2018-05-23T01:24:37.218Z,10.83
2018-05-23T01:27:04.701Z,10.50
2018-05-23T01:29:32.165Z,10.90
2018-05-23T01:31:59.664Z,10.80
2018-05-23T01:34:27.144Z,10.70
2018-05-23T01:36:54.628Z,11.20
2018-05-23T01:39:22.182Z,11.40
2018-05-23T01:41:49.760Z,10.50
2018-05-23T01:44:17.268Z,10.33
2018-05-23T01:46:44.737Z,11.53
2018-05-23T01:49:24.005Z,10.53
2018-05-23T01:51:51.475Z,11.10
2018-05-23T01:54:19.020Z,11.83
2018-05-23T01:56:46.499Z,10.53
2018-05-23T01:59:13.963Z,9.33
2018-05-23T02:01:41.466Z,10.60
2018-05-23T02:04:09.033Z,10.33
2018-05-23T02:06:36.592Z,10.60
2018-05-23T02:09:06.891Z,12.37
2018-05-23T02:11:34.373Z,10.53
2018-05-23T02:14:01.856Z,10.63
2018-05-23T02:16:29.392Z,11.17
2018-05-23T02:18:56.883Z,11.03
2018-05-23T02:21:24.371Z,11.27
2018-05-23T02:23:51.872Z,11.97
2018-05-23T02:43:36.350Z,10.57
2018-05-23T02:46:03.824Z,10.80
2018-05-23T02:48:31.307Z,12.23
2018-05-23T02:50:58.845Z,11.50
2018-05-23T02:53:26.328Z,11.63
2018-05-23T02:55:53.801Z,11.73
2018-05-23T02:58:21.285Z,11.53
2018-05-23T03:00:48.809Z,11.93
2018-05-23T03:03:16.297Z,12.20
2018-05-23T03:05:43.780Z,11.83
2018-05-23T03:08:11.265Z,12.67
2018-05-23T03:10:38.735Z,11.97
2018-05-23T03:13:06.212Z,13.60
2018-05-23T03:15:33.688Z,12.93
2018-05-23T03:18:01.154Z,13.60
2018-05-23T03:20:28.636Z,13.53
2018-05-23T03:22:56.115Z,12.43
2018-05-23T03:25:23.588Z,12.43
2018-05-23T03:27:51.069Z,12.40
2018-05-23T03:30:18.573Z,12.63
2018-05-23T03:32:46.129Z,12.17
2018-05-23T03:35:13.619Z,12.50
2018-05-23T03:37:41.093Z,11.43
2018-05-23T03:40:08.604Z,12.07
2018-05-23T03:42:36.089Z,12.10
2018-05-23T03:45:03.601Z,12.03
2018-05-23T03:47:31.061Z,12.93
2018-05-23T03:49:58.541Z,15.47
2018-05-23T03:52:26.049Z,11.43
2018-05-23T03:54:53.539Z,11.67
2018-05-23T03:57:21.094Z,11.33
2018-05-23T04:00:00.323Z,11.67
2018-05-23T04:02:39.548Z,12.73
2018-05-23T04:05:18.884Z,11.73
2018-05-23T04:07:46.375Z,10.97
2018-05-23T04:10:13.860Z,11.33
2018-05-23T04:12:41.378Z,13.00
2018-05-23T04:15:09.871Z,10.80
2018-05-23T04:17:37.352Z,11.50
2018-05-23T04:20:04.879Z,12.17
2018-05-23T04:22:32.476Z,11.10
2018-05-23T04:24:59.997Z,10.30
2018-05-23T04:27:27.472Z,10.87
2018-05-23T04:29:54.951Z,11.50
2018-05-23T04:32:22.427Z,10.80
2018-05-23T04:34:49.945Z,11.77
2018-05-23T04:37:17.425Z,12.27
2018-05-23T04:39:44.948Z,11.20
2018-05-23T04:42:12.451Z,11.87
2018-05-23T04:44:39.945Z,12.27
2018-05-23T04:47:07.433Z,11.20
2018-05-23T04:49:34.916Z,11.07
2018-05-23T04:52:02.393Z,13.93
2018-05-23T05:11:46.305Z,10.87
2018-05-23T05:14:13.780Z,10.53
2018-05-23T05:16:41.273Z,10.97
2018-05-23T05:19:08.753Z,10.20
2018-05-23T05:21:36.230Z,10.20
2018-05-23T05:24:03.742Z,10.60
2018-05-23T05:26:31.317Z,11.63
2018-05-23T05:28:58.805Z,10.13
2018-05-23T05:31:26.271Z,10.50
2018-05-23T05:33:53.851Z,10.53
2018-05-23T05:36:21.328Z,11.57
2018-05-23T05:38:48.877Z,11.13
2018-05-23T05:58:33.139Z,7.93
2018-05-23T06:01:01.382Z,8.00
2018-05-23T06:03:28.911Z,9.40
2018-05-23T06:05:56.383Z,8.40
2018-05-23T06:25:40.823Z,8.07
2018-05-23T06:28:08.294Z,6.57
2018-05-23T06:30:35.772Z,8.27
2018-05-23T06:50:19.326Z,6.73
2018-05-23T06:52:47.034Z,6.37
2018-05-23T06:55:14.541Z,6.83
2018-05-23T06:57:42.009Z,6.03
2018-05-23T07:17:25.790Z,5.80
2018-05-23T07:37:09.024Z,6.95
2018-05-23T08:08:22.717Z,4.28
2018-05-23T08:28:05.672Z,7.87
2018-05-23T08:56:33.605Z,5.40
2018-05-23T08:59:01.092Z,4.93
2018-05-23T09:01:28.594Z,4.80
2018-05-23T09:03:56.140Z,8.73
2018-05-23T09:06:23.614Z,4.75
2018-05-23T09:08:51.158Z,9.50
2018-05-23T09:11:18.715Z,5.20
2018-05-23T09:13:46.949Z,6.78
2018-05-23T09:16:14.694Z,5.35
2018-05-23T09:18:42.184Z,4.45
2018-05-23T09:21:09.687Z,6.90
2018-05-23T09:23:37.244Z,9.18
2018-05-23T09:26:07.145Z,5.45
2018-05-23T09:28:34.684Z,5.50
2018-05-23T09:31:02.178Z,11.18
2018-05-23T09:33:29.642Z,5.80
2018-05-23T09:35:57.108Z,5.35
2018-05-23T09:38:24.633Z,4.68
2018-05-23T09:40:52.105Z,5.30
2018-05-23T09:43:19.632Z,6.87
2018-05-23T09:45:47.109Z,5.50
2018-05-23T10:05:30.496Z,5.32
2018-05-23T10:33:52.122Z,9.17
2018-05-23T10:53:36.316Z,8.10
2018-05-23T11:04:41.604Z,5.40
2018-05-23T11:24:24.640Z,6.43
2018-05-23T11:44:07.885Z,8.30
2018-05-23T12:03:50.923Z,6.07
2018-05-23T12:06:18.460Z,5.25
2018-05-23T12:08:45.935Z,11.45
2018-05-23T12:28:30.196Z,4.82
2018-05-23T13:02:37.130Z,4.20
2018-05-23T13:05:04.599Z,8.20
2018-05-23T13:07:32.167Z,4.93
2018-05-23T13:09:59.692Z,8.27
2018-05-23T13:12:27.260Z,4.20
2018-05-23T13:32:11.251Z,4.53
2018-05-23T13:34:38.797Z,4.85
2018-05-23T13:37:06.268Z,5.25
2018-05-23T13:56:50.611Z,5.68
2018-05-23T13:59:18.256Z,5.28
2018-05-23T14:19:22.569Z,5.37
2018-05-23T14:39:07.759Z,5.22
2018-05-23T14:58:51.403Z,6.05
2018-05-23T15:01:18.871Z,5.37
2018-05-23T15:03:46.432Z,7.10
2018-05-23T15:06:13.903Z,6.50
2018-05-23T15:08:41.447Z,7.77
2018-05-23T15:11:08.916Z,5.70
2018-05-23T15:13:37.147Z,5.90
2018-05-23T15:16:04.614Z,7.83
2018-05-23T15:18:32.076Z,7.40
2018-05-23T15:20:59.548Z,5.87
2018-05-23T15:23:27.102Z,7.23
2018-05-23T15:25:54.663Z,7.53
2018-05-23T15:28:22.149Z,8.27
2018-05-23T15:30:49.681Z,10.30
2018-05-23T15:50:33.849Z,8.07
2018-05-23T15:53:01.378Z,6.37
2018-05-23T15:55:28.840Z,7.90
2018-05-23T15:57:56.305Z,7.37
2018-05-23T16:00:23.776Z,8.50
2018-05-23T16:02:51.313Z,8.27
2018-05-23T16:05:18.761Z,10.00
2018-05-23T16:10:38.837Z,11.23
2018-05-23T16:13:06.303Z,7.97
2018-05-23T16:15:33.767Z,6.43
2018-05-23T16:18:01.278Z,6.20
2018-05-23T16:20:28.767Z,7.30
2018-05-23T16:22:56.236Z,6.63
2018-05-23T16:25:24.071Z,6.80
2018-05-23T16:27:51.546Z,6.47
2018-05-23T16:47:35.049Z,6.93
2018-05-23T16:50:02.525Z,9.90
2018-05-23T16:52:30.100Z,7.80
2018-05-23T16:54:57.572Z,7.90
2018-05-23T16:57:25.031Z,8.07
2018-05-23T16:59:52.516Z,8.33
2018-05-23T17:02:19.990Z,9.07
2018-05-23T17:04:47.464Z,9.80
2018-05-23T17:07:14.962Z,9.63
2018-05-23T17:09:42.451Z,10.83
2018-05-23T17:12:10.012Z,10.67
2018-05-23T17:14:37.555Z,10.10
2018-05-23T17:17:05.026Z,10.70
2018-05-23T17:36:48.062Z,10.57
2018-05-23T17:56:42.199Z,12.30
2018-05-23T18:16:25.908Z,12.67
2018-05-23T18:18:53.383Z,11.30
2018-05-23T18:38:36.957Z,12.27
2018-05-23T18:41:04.471Z,13.40
2018-05-23T19:12:21.304Z,12.83
2018-05-23T19:14:48.772Z,12.47
2018-05-23T19:17:16.257Z,14.47
2018-05-23T19:19:43.749Z,11.30
2018-05-23T19:22:11.207Z,12.90
2018-05-23T19:24:38.724Z,13.33
2018-05-23T19:44:23.166Z,14.63
2018-05-23T19:49:43.566Z,15.73
2018-05-23T19:52:11.051Z,14.50
2018-05-23T19:54:38.543Z,16.17
2018-05-23T19:57:06.047Z,16.50
2018-05-23T19:59:33.608Z,15.47
2018-05-23T20:19:17.651Z,15.77
2018-05-23T20:21:45.127Z,16.13
2018-05-23T20:24:12.600Z,15.67
2018-05-23T20:26:40.431Z,15.57
2018-05-23T20:29:07.904Z,16.10
2018-05-23T20:31:35.385Z,15.17
2018-05-23T20:34:02.871Z,16.27
2018-05-23T20:53:46.893Z,16.83
2018-05-23T20:56:14.408Z,16.83
2018-05-23T20:58:41.987Z,18.87
2018-05-23T21:01:09.518Z,20.20
2018-05-23T21:03:36.996Z,17.40
2018-05-23T21:06:04.544Z,17.77
2018-05-23T21:08:32.092Z,18.63
2018-05-23T21:10:59.653Z,19.90
2018-05-23T21:30:42.943Z,19.43
2018-05-23T21:33:10.421Z,21.87
2018-05-23T21:35:37.899Z,19.17
2018-05-23T21:55:21.790Z,19.40
2018-05-23T21:57:49.256Z,19.83
2018-05-23T22:00:16.742Z,21.13
2018-05-23T22:02:44.305Z,19.73
2018-05-23T22:22:28.261Z,20.67
2018-05-23T22:24:55.739Z,21.63
2018-05-23T22:27:23.215Z,21.57
2018-05-23T22:47:06.292Z,22.97
2018-05-23T22:49:33.914Z,23.53
2018-05-23T22:52:01.381Z,23.50
2018-05-23T22:54:28.857Z,26.90
2018-05-23T22:56:56.355Z,24.37
2018-05-23T22:59:23.868Z,27.43
2018-05-23T23:01:51.445Z,27.73
2018-05-23T23:21:35.016Z,27.60
2018-05-23T23:24:02.502Z,27.90
2018-05-23T23:26:29.976Z,27.33
2018-05-23T23:28:57.539Z,27.33
2018-05-23T23:31:25.004Z,27.47
2018-05-23T23:33:52.474Z,27.63
2018-05-23T23:36:19.938Z,24.87
2018-05-23T23:56:02.653Z,24.27
2018-05-23T23:58:30.128Z,24.80
